createdAt,value
2023-05-22T00:00:08.110Z,19.02
2023-05-22T00:03:13.659Z,19.18
2023-05-22T00:06:19.772Z,18.97
2023-05-22T00:09:26.584Z,19.06
2023-05-22T00:12:32.039Z,19.03
2023-05-22T00:15:37.559Z,18.88
2023-05-22T00:18:43.082Z,18.97
2023-05-22T00:21:49.813Z,18.67
2023-05-22T00:24:56.683Z,18.77
2023-05-22T00:28:03.165Z,18.86
2023-05-22T00:31:09.898Z,18.79
2023-05-22T00:34:18.595Z,18.71
2023-05-22T00:37:24.165Z,18.71
2023-05-22T00:40:30.583Z,18.72
2023-05-22T00:43:36.624Z,18.49
2023-05-22T00:46:43.674Z,18.54
2023-05-22T00:49:49.104Z,18.36
2023-05-22T00:52:57.644Z,18.38
2023-05-22T00:56:03.317Z,18.34
2023-05-22T00:59:10.069Z,18.30
2023-05-22T01:02:15.407Z,18.59
2023-05-22T01:05:23.748Z,18.75
2023-05-22T01:08:29.752Z,18.87
2023-05-22T01:12:04.739Z,18.77
2023-05-22T01:15:24.527Z,18.36
2023-05-22T01:18:52.026Z,18.71
2023-05-22T01:22:14.151Z,18.95
2023-05-22T01:26:16.822Z,18.26
2023-05-22T01:29:53.880Z,18.36
2023-05-22T01:33:00.181Z,18.32
2023-05-22T01:36:00.956Z,18.28
2023-05-22T01:38:48.655Z,18.13
2023-05-22T01:41:42.686Z,18.12
2023-05-22T01:44:48.348Z,18.88
2023-05-22T01:47:47.310Z,19.08
2023-05-22T01:50:41.811Z,19.31
2023-05-22T01:53:54.543Z,18.53
2023-05-22T01:57:19.747Z,18.17
2023-05-22T02:00:27.431Z,18.29
2023-05-22T02:03:36.456Z,18.22
2023-05-22T02:06:41.580Z,18.22
2023-05-22T02:09:47.132Z,18.19
2023-05-22T02:12:54.198Z,18.05
2023-05-22T02:16:03.516Z,17.93
2023-05-22T02:19:14.324Z,17.95
2023-05-22T02:22:21.723Z,17.85
2023-05-22T02:25:28.993Z,17.92
